sensor_id;sensor_type;location;lat;lon;timestamp;P1;durP1;ratioP1;P2;durP2;ratioP2
85133;SDS011;75590;42.690;23.356;2024-03-23T00:54:35;8.82;;;4.85;;
85133;SDS011;75590;42.690;23.356;2024-03-23T00:57:01;5.30;;;2.67;;
85133;SDS011;75590;42.690;23.356;2024-03-23T00:59:26;6.43;;;4.88;;
85133;SDS011;75590;42.690;23.356;2024-03-23T01:01:53;6.05;;;4.10;;
85133;SDS011;75590;42.690;23.356;2024-03-23T01:04:20;2.38;;;2.28;;
85133;SDS011;75590;42.690;23.356;2024-03-23T01:06:46;4.72;;;3.00;;
85133;SDS011;75590;42.690;23.356;2024-03-23T01:09:12;5.72;;;3.67;;
85133;SDS011;75590;42.690;23.356;2024-03-23T01:11:38;0.88;;;0.88;;
85133;SDS011;75590;42.690;23.356;2024-03-23T01:14:04;4.78;;;2.85;;
85133;SDS011;75590;42.690;23.356;2024-03-23T01:16:30;0.77;;;0.77;;
85133;SDS011;75590;42.690;23.356;2024-03-23T01:18:56;1.13;;;1.13;;
85133;SDS011;75590;42.690;23.356;2024-03-23T01:21:21;1.80;;;1.33;;
85133;SDS011;75590;42.690;23.356;2024-03-23T01:23:47;0.47;;;0.47;;
85133;SDS011;75590;42.690;23.356;2024-03-23T01:26:12;0.80;;;0.80;;
85133;SDS011;75590;42.690;23.356;2024-03-23T01:28:38;4.82;;;1.40;;
85133;SDS011;75590;42.690;23.356;2024-03-23T01:31:04;1.30;;;1.20;;
85133;SDS011;75590;42.690;23.356;2024-03-23T01:33:30;0.55;;;0.55;;
85133;SDS011;75590;42.690;23.356;2024-03-23T01:35:55;0.85;;;0.85;;
85133;SDS011;75590;42.690;23.356;2024-03-23T01:38:21;0.90;;;0.70;;
85133;SDS011;75590;42.690;23.356;2024-03-23T01:40:46;2.30;;;1.80;;
85133;SDS011;75590;42.690;23.356;2024-03-23T01:43:12;1.00;;;1.00;;
85133;SDS011;75590;42.690;23.356;2024-03-23T01:45:37;1.15;;;0.98;;
85133;SDS011;75590;42.690;23.356;2024-03-23T01:48:03;0.28;;;0.28;;
85133;SDS011;75590;42.690;23.356;2024-03-23T01:50:29;3.13;;;1.83;;
85133;SDS011;75590;42.690;23.356;2024-03-23T01:52:58;1.00;;;0.73;;
85133;SDS011;75590;42.690;23.356;2024-03-23T01:55:25;1.02;;;1.02;;
85133;SDS011;75590;42.690;23.356;2024-03-23T01:58:09;0.20;;;0.20;;
85133;SDS011;75590;42.690;23.356;2024-03-23T02:00:35;0.63;;;0.63;;
85133;SDS011;75590;42.690;23.356;2024-03-23T02:03:01;0.68;;;0.68;;
85133;SDS011;75590;42.690;23.356;2024-03-23T02:05:27;2.85;;;1.40;;
85133;SDS011;75590;42.690;23.356;2024-03-23T02:07:52;1.73;;;1.33;;
85133;SDS011;75590;42.690;23.356;2024-03-23T02:10:18;4.97;;;2.80;;
85133;SDS011;75590;42.690;23.356;2024-03-23T02:12:43;0.60;;;0.60;;
85133;SDS011;75590;42.690;23.356;2024-03-23T02:15:09;0.95;;;0.95;;
85133;SDS011;75590;42.690;23.356;2024-03-23T02:17:35;2.15;;;2.05;;
85133;SDS011;75590;42.690;23.356;2024-03-23T02:20:01;0.88;;;0.52;;
85133;SDS011;75590;42.690;23.356;2024-03-23T02:22:37;2.13;;;1.38;;
85133;SDS011;75590;42.690;23.356;2024-03-23T02:25:03;0.63;;;0.63;;
85133;SDS011;75590;42.690;23.356;2024-03-23T02:27:30;1.25;;;1.15;;
85133;SDS011;75590;42.690;23.356;2024-03-23T02:29:55;4.07;;;1.08;;
85133;SDS011;75590;42.690;23.356;2024-03-23T02:32:20;2.15;;;1.83;;
85133;SDS011;75590;42.690;23.356;2024-03-23T02:34:46;0.38;;;0.38;;
85133;SDS011;75590;42.690;23.356;2024-03-23T02:37:12;0.80;;;0.80;;
85133;SDS011;75590;42.690;23.356;2024-03-23T02:39:37;1.85;;;1.75;;
85133;SDS011;75590;42.690;23.356;2024-03-23T02:42:03;0.90;;;0.90;;
85133;SDS011;75590;42.690;23.356;2024-03-23T02:44:28;3.65;;;0.98;;
85133;SDS011;75590;42.690;23.356;2024-03-23T02:46:54;1.35;;;1.25;;
85133;SDS011;75590;42.690;23.356;2024-03-23T02:49:19;1.40;;;1.30;;
85133;SDS011;75590;42.690;23.356;2024-03-23T02:52:03;1.05;;;1.05;;
85133;SDS011;75590;42.690;23.356;2024-03-23T02:54:29;0.98;;;0.98;;
85133;SDS011;75590;42.690;23.356;2024-03-23T02:56:54;3.65;;;1.60;;
85133;SDS011;75590;42.690;23.356;2024-03-23T02:59:20;1.58;;;1.48;;
85133;SDS011;75590;42.690;23.356;2024-03-23T03:01:46;1.65;;;1.15;;
85133;SDS011;75590;42.690;23.356;2024-03-23T03:04:11;1.00;;;1.00;;
85133;SDS011;75590;42.690;23.356;2024-03-23T03:06:37;0.57;;;0.57;;
85133;SDS011;75590;42.690;23.356;2024-03-23T03:09:02;0.55;;;0.55;;
85133;SDS011;75590;42.690;23.356;2024-03-23T03:11:28;1.40;;;1.25;;
85133;SDS011;75590;42.690;23.356;2024-03-23T03:13:53;0.38;;;0.38;;
85133;SDS011;75590;42.690;23.356;2024-03-23T03:16:19;0.63;;;0.63;;
85133;SDS011;75590;42.690;23.356;2024-03-23T03:18:44;0.60;;;0.60;;
85133;SDS011;75590;42.690;23.356;2024-03-23T03:21:11;1.48;;;1.38;;
85133;SDS011;75590;42.690;23.356;2024-03-23T03:23:37;0.20;;;0.20;;
85133;SDS011;75590;42.690;23.356;2024-03-23T03:26:03;0.75;;;0.75;;
85133;SDS011;75590;42.690;23.356;2024-03-23T03:28:30;0.60;;;0.60;;
85133;SDS011;75590;42.690;23.356;2024-03-23T03:30:57;3.38;;;1.65;;
85133;SDS011;75590;42.690;23.356;2024-03-23T03:33:22;0.57;;;0.57;;
85133;SDS011;75590;42.690;23.356;2024-03-23T03:35:48;1.67;;;1.58;;
85133;SDS011;75590;42.690;23.356;2024-03-23T03:38:14;1.08;;;1.08;;
85133;SDS011;75590;42.690;23.356;2024-03-23T03:40:41;1.08;;;0.95;;
85133;SDS011;75590;42.690;23.356;2024-03-23T03:43:07;1.23;;;1.23;;
85133;SDS011;75590;42.690;23.356;2024-03-23T03:45:32;0.80;;;0.80;;
85133;SDS011;75590;42.690;23.356;2024-03-23T03:47:58;0.30;;;0.30;;
85133;SDS011;75590;42.690;23.356;2024-03-23T03:50:24;0.63;;;0.63;;
85133;SDS011;75590;42.690;23.356;2024-03-23T03:52:50;1.00;;;1.00;;
85133;SDS011;75590;42.690;23.356;2024-03-23T03:55:16;0.32;;;0.32;;
85133;SDS011;75590;42.690;23.356;2024-03-23T03:57:41;0.93;;;0.93;;
85133;SDS011;75590;42.690;23.356;2024-03-23T04:00:07;0.57;;;0.57;;
85133;SDS011;75590;42.690;23.356;2024-03-23T04:02:36;0.65;;;0.65;;
85133;SDS011;75590;42.690;23.356;2024-03-23T04:05:03;0.22;;;0.22;;
85133;SDS011;75590;42.690;23.356;2024-03-23T04:07:28;0.10;;;0.10;;
85133;SDS011;75590;42.690;23.356;2024-03-23T04:09:54;0.85;;;0.60;;
85133;SDS011;75590;42.690;23.356;2024-03-23T04:12:19;0.90;;;0.90;;
85133;SDS011;75590;42.690;23.356;2024-03-23T04:14:45;0.50;;;0.50;;
85133;SDS011;75590;42.690;23.356;2024-03-23T04:17:11;0.55;;;0.55;;
85133;SDS011;75590;42.690;23.356;2024-03-23T04:19:37;0.30;;;0.30;;
85133;SDS011;75590;42.690;23.356;2024-03-23T04:22:02;0.57;;;0.57;;
85133;SDS011;75590;42.690;23.356;2024-03-23T04:24:28;0.98;;;0.98;;
85133;SDS011;75590;42.690;23.356;2024-03-23T04:26:54;0.55;;;0.55;;
85133;SDS011;75590;42.690;23.356;2024-03-23T04:29:20;1.67;;;1.58;;
85133;SDS011;75590;42.690;23.356;2024-03-23T04:31:45;1.60;;;1.50;;
85133;SDS011;75590;42.690;23.356;2024-03-23T04:34:11;1.75;;;1.65;;
85133;SDS011;75590;42.690;23.356;2024-03-23T04:36:36;0.40;;;0.40;;
85133;SDS011;75590;42.690;23.356;2024-03-23T04:39:02;0.50;;;0.50;;
85133;SDS011;75590;42.690;23.356;2024-03-23T04:41:28;1.27;;;0.98;;
85133;SDS011;75590;42.690;23.356;2024-03-23T04:43:54;0.25;;;0.25;;
85133;SDS011;75590;42.690;23.356;2024-03-23T04:46:19;0.32;;;0.32;;
85133;SDS011;75590;42.690;23.356;2024-03-23T04:48:45;0.70;;;0.70;;
85133;SDS011;75590;42.690;23.356;2024-03-23T04:51:11;0.38;;;0.38;;
85133;SDS011;75590;42.690;23.356;2024-03-23T04:56:11;0.40;;;0.40;;
85133;SDS011;75590;42.690;23.356;2024-03-23T04:58:37;0.60;;;0.60;;
85133;SDS011;75590;42.690;23.356;2024-03-23T05:01:02;0.20;;;0.20;;
85133;SDS011;75590;42.690;23.356;2024-03-23T05:03:28;0.60;;;0.60;;
85133;SDS011;75590;42.690;23.356;2024-03-23T05:05:54;1.10;;;1.10;;
85133;SDS011;75590;42.690;23.356;2024-03-23T05:08:19;1.08;;;0.93;;
85133;SDS011;75590;42.690;23.356;2024-03-23T05:10:45;2.20;;;1.10;;
85133;SDS011;75590;42.690;23.356;2024-03-23T05:13:11;1.00;;;0.80;;
85133;SDS011;75590;42.690;23.356;2024-03-23T05:15:37;0.57;;;0.57;;
85133;SDS011;75590;42.690;23.356;2024-03-23T05:18:02;2.13;;;1.25;;
85133;SDS011;75590;42.690;23.356;2024-03-23T05:20:30;1.35;;;1.25;;
85133;SDS011;75590;42.690;23.356;2024-03-23T05:22:55;5.15;;;1.40;;
85133;SDS011;75590;42.690;23.356;2024-03-23T05:25:21;4.55;;;2.15;;
85133;SDS011;75590;42.690;23.356;2024-03-23T05:27:47;4.50;;;2.15;;
85133;SDS011;75590;42.690;23.356;2024-03-23T05:30:13;1.10;;;1.02;;
85133;SDS011;75590;42.690;23.356;2024-03-23T05:32:39;1.80;;;1.70;;
85133;SDS011;75590;42.690;23.356;2024-03-23T05:35:08;1.20;;;1.20;;
85133;SDS011;75590;42.690;23.356;2024-03-23T05:37:34;2.78;;;1.85;;
85133;SDS011;75590;42.690;23.356;2024-03-23T05:40:00;2.05;;;1.55;;
85133;SDS011;75590;42.690;23.356;2024-03-23T05:42:26;2.58;;;2.03;;
85133;SDS011;75590;42.690;23.356;2024-03-23T05:44:51;3.38;;;2.15;;
85133;SDS011;75590;42.690;23.356;2024-03-23T05:47:17;2.38;;;1.33;;
85133;SDS011;75590;42.690;23.356;2024-03-23T05:49:43;4.60;;;3.13;;
85133;SDS011;75590;42.690;23.356;2024-03-23T05:52:08;2.80;;;1.75;;
85133;SDS011;75590;42.690;23.356;2024-03-23T05:54:34;6.43;;;2.25;;
85133;SDS011;75590;42.690;23.356;2024-03-23T05:57:00;1.95;;;1.77;;
85133;SDS011;75590;42.690;23.356;2024-03-23T05:59:26;4.88;;;3.70;;
85133;SDS011;75590;42.690;23.356;2024-03-23T06:01:52;4.88;;;2.50;;
85133;SDS011;75590;42.690;23.356;2024-03-23T06:04:18;2.17;;;1.98;;
85133;SDS011;75590;42.690;23.356;2024-03-23T06:06:43;3.83;;;2.88;;
85133;SDS011;75590;42.690;23.356;2024-03-23T06:09:08;4.18;;;2.25;;
85133;SDS011;75590;42.690;23.356;2024-03-23T06:11:34;2.92;;;2.67;;
85133;SDS011;75590;42.690;23.356;2024-03-23T06:13:59;5.72;;;4.43;;
85133;SDS011;75590;42.690;23.356;2024-03-23T06:16:25;4.88;;;3.13;;
85133;SDS011;75590;42.690;23.356;2024-03-23T06:18:52;3.13;;;2.17;;
85133;SDS011;75590;42.690;23.356;2024-03-23T06:21:18;2.70;;;2.47;;
85133;SDS011;75590;42.690;23.356;2024-03-23T06:23:44;2.33;;;1.80;;
85133;SDS011;75590;42.690;23.356;2024-03-23T06:26:19;7.03;;;2.08;;
85133;SDS011;75590;42.690;23.356;2024-03-23T06:28:45;2.50;;;2.05;;
85133;SDS011;75590;42.690;23.356;2024-03-23T06:31:11;2.97;;;2.08;;
85133;SDS011;75590;42.690;23.356;2024-03-23T06:33:36;1.85;;;1.55;;
85133;SDS011;75590;42.690;23.356;2024-03-23T06:36:02;5.78;;;2.50;;
85133;SDS011;75590;42.690;23.356;2024-03-23T06:38:31;4.15;;;1.63;;
85133;SDS011;75590;42.690;23.356;2024-03-23T06:40:57;3.42;;;2.72;;
85133;SDS011;75590;42.690;23.356;2024-03-23T06:43:23;2.45;;;2.25;;
85133;SDS011;75590;42.690;23.356;2024-03-23T06:45:55;2.33;;;2.13;;
85133;SDS011;75590;42.690;23.356;2024-03-23T06:48:21;1.92;;;1.83;;
85133;SDS011;75590;42.690;23.356;2024-03-23T06:50:47;4.65;;;2.22;;
85133;SDS011;75590;42.690;23.356;2024-03-23T06:53:13;4.57;;;3.28;;
85133;SDS011;75590;42.690;23.356;2024-03-23T06:55:38;3.95;;;2.10;;
85133;SDS011;75590;42.690;23.356;2024-03-23T06:58:04;3.83;;;1.98;;
85133;SDS011;75590;42.690;23.356;2024-03-23T07:00:30;6.40;;;3.67;;
85133;SDS011;75590;42.690;23.356;2024-03-23T07:02:55;4.63;;;2.60;;
85133;SDS011;75590;42.690;23.356;2024-03-23T07:05:21;4.10;;;3.00;;
85133;SDS011;75590;42.690;23.356;2024-03-23T07:07:46;2.72;;;2.30;;
85133;SDS011;75590;42.690;23.356;2024-03-23T07:10:12;2.65;;;2.28;;
85133;SDS011;75590;42.690;23.356;2024-03-23T07:12:38;4.72;;;3.47;;
85133;SDS011;75590;42.690;23.356;2024-03-23T07:15:03;4.75;;;3.20;;
85133;SDS011;75590;42.690;23.356;2024-03-23T07:17:31;5.13;;;4.22;;
85133;SDS011;75590;42.690;23.356;2024-03-23T07:19:58;2.97;;;2.78;;
85133;SDS011;75590;42.690;23.356;2024-03-23T07:22:23;4.05;;;3.03;;
85133;SDS011;75590;42.690;23.356;2024-03-23T07:24:49;3.38;;;2.45;;
85133;SDS011;75590;42.690;23.356;2024-03-23T07:27:14;4.20;;;3.40;;
85133;SDS011;75590;42.690;23.356;2024-03-23T07:29:42;2.97;;;2.75;;
85133;SDS011;75590;42.690;23.356;2024-03-23T07:32:08;3.58;;;2.05;;
85133;SDS011;75590;42.690;23.356;2024-03-23T07:34:33;2.47;;;2.05;;
85133;SDS011;75590;42.690;23.356;2024-03-23T07:36:59;6.80;;;2.65;;
85133;SDS011;75590;42.690;23.356;2024-03-23T07:39:25;3.55;;;2.72;;
85133;SDS011;75590;42.690;23.356;2024-03-23T07:44:18;3.75;;;3.05;;
85133;SDS011;75590;42.690;23.356;2024-03-23T07:46:43;4.82;;;3.65;;
85133;SDS011;75590;42.690;23.356;2024-03-23T07:49:09;2.72;;;2.50;;
85133;SDS011;75590;42.690;23.356;2024-03-23T07:51:34;4.60;;;2.92;;
85133;SDS011;75590;42.690;23.356;2024-03-23T07:54:00;4.05;;;2.03;;
85133;SDS011;75590;42.690;23.356;2024-03-23T07:56:25;1.40;;;1.30;;
85133;SDS011;75590;42.690;23.356;2024-03-23T07:58:51;4.88;;;2.85;;
85133;SDS011;75590;42.690;23.356;2024-03-23T08:01:16;4.47;;;4.07;;
85133;SDS011;75590;42.690;23.356;2024-03-23T08:03:45;3.30;;;2.78;;
85133;SDS011;75590;42.690;23.356;2024-03-23T08:08:40;2.90;;;1.70;;
85133;SDS011;75590;42.690;23.356;2024-03-23T08:11:07;3.45;;;2.10;;
85133;SDS011;75590;42.690;23.356;2024-03-23T08:13:33;3.63;;;2.78;;
85133;SDS011;75590;42.690;23.356;2024-03-23T08:15:59;7.50;;;2.80;;
85133;SDS011;75590;42.690;23.356;2024-03-23T08:18:26;4.03;;;2.85;;
85133;SDS011;75590;42.690;23.356;2024-03-23T08:20:55;2.97;;;2.08;;
85133;SDS011;75590;42.690;23.356;2024-03-23T08:23:22;4.10;;;2.75;;
85133;SDS011;75590;42.690;23.356;2024-03-23T08:25:48;5.32;;;2.88;;
85133;SDS011;75590;42.690;23.356;2024-03-23T08:28:14;3.00;;;2.42;;
85133;SDS011;75590;42.690;23.356;2024-03-23T08:30:39;4.45;;;3.30;;
85133;SDS011;75590;42.690;23.356;2024-03-23T08:33:05;2.65;;;2.45;;
85133;SDS011;75590;42.690;23.356;2024-03-23T08:35:30;2.72;;;1.67;;
85133;SDS011;75590;42.690;23.356;2024-03-23T08:37:56;3.30;;;2.50;;
85133;SDS011;75590;42.690;23.356;2024-03-23T08:40:21;5.60;;;2.33;;
85133;SDS011;75590;42.690;23.356;2024-03-23T08:42:47;3.13;;;2.13;;
85133;SDS011;75590;42.690;23.356;2024-03-23T08:45:12;5.40;;;2.38;;
85133;SDS011;75590;42.690;23.356;2024-03-23T08:47:38;3.80;;;2.63;;
85133;SDS011;75590;42.690;23.356;2024-03-23T08:50:04;3.00;;;2.33;;
85133;SDS011;75590;42.690;23.356;2024-03-23T08:52:30;2.67;;;2.00;;
85133;SDS011;75590;42.690;23.356;2024-03-23T08:54:56;2.42;;;2.22;;
85133;SDS011;75590;42.690;23.356;2024-03-23T08:57:24;3.65;;;2.45;;
85133;SDS011;75590;42.690;23.356;2024-03-23T08:59:50;4.32;;;3.75;;
85133;SDS011;75590;42.690;23.356;2024-03-23T09:02:17;3.50;;;2.63;;
85133;SDS011;75590;42.690;23.356;2024-03-23T09:04:43;3.85;;;3.30;;
85133;SDS011;75590;42.690;23.356;2024-03-23T09:07:11;2.88;;;2.50;;
85133;SDS011;75590;42.690;23.356;2024-03-23T09:09:39;3.58;;;2.42;;
85133;SDS011;75590;42.690;23.356;2024-03-23T09:12:05;2.45;;;1.98;;
85133;SDS011;75590;42.690;23.356;2024-03-23T09:14:32;4.90;;;2.17;;
85133;SDS011;75590;42.690;23.356;2024-03-23T09:16:58;3.75;;;2.28;;
85133;SDS011;75590;42.690;23.356;2024-03-23T09:19:28;1.77;;;1.40;;
85133;SDS011;75590;42.690;23.356;2024-03-23T09:21:54;2.10;;;1.20;;
85133;SDS011;75590;42.690;23.356;2024-03-23T09:24:20;2.65;;;2.42;;
85133;SDS011;75590;42.690;23.356;2024-03-23T09:26:46;2.70;;;1.92;;
85133;SDS011;75590;42.690;23.356;2024-03-23T09:29:13;2.97;;;2.47;;
85133;SDS011;75590;42.690;23.356;2024-03-23T09:31:39;4.30;;;2.22;;
85133;SDS011;75590;42.690;23.356;2024-03-23T09:36:33;7.55;;;3.05;;
85133;SDS011;75590;42.690;23.356;2024-03-23T09:38:59;2.05;;;1.85;;
85133;SDS011;75590;42.690;23.356;2024-03-23T09:41:25;3.88;;;1.55;;
85133;SDS011;75590;42.690;23.356;2024-03-23T09:43:53;2.97;;;2.38;;
85133;SDS011;75590;42.690;23.356;2024-03-23T09:46:19;4.07;;;2.75;;
85133;SDS011;75590;42.690;23.356;2024-03-23T09:48:46;3.22;;;1.80;;
85133;SDS011;75590;42.690;23.356;2024-03-23T09:51:12;3.90;;;2.50;;
85133;SDS011;75590;42.690;23.356;2024-03-23T09:53:39;2.47;;;2.05;;
85133;SDS011;75590;42.690;23.356;2024-03-23T09:56:04;2.42;;;2.20;;
85133;SDS011;75590;42.690;23.356;2024-03-23T09:58:30;3.65;;;2.47;;
85133;SDS011;75590;42.690;23.356;2024-03-23T10:00:57;6.30;;;2.65;;
85133;SDS011;75590;42.690;23.356;2024-03-23T10:03:23;4.22;;;2.65;;
85133;SDS011;75590;42.690;23.356;2024-03-23T10:05:58;2.92;;;2.03;;
85133;SDS011;75590;42.690;23.356;2024-03-23T10:08:26;2.97;;;2.03;;
85133;SDS011;75590;42.690;23.356;2024-03-23T10:10:54;3.38;;;2.50;;
85133;SDS011;75590;42.690;23.356;2024-03-23T10:13:26;4.95;;;2.83;;
85133;SDS011;75590;42.690;23.356;2024-03-23T10:15:56;5.15;;;2.35;;
85133;SDS011;75590;42.690;23.356;2024-03-23T10:18:23;4.25;;;3.60;;
85133;SDS011;75590;42.690;23.356;2024-03-23T10:21:05;5.03;;;4.47;;
85133;SDS011;75590;42.690;23.356;2024-03-23T10:23:38;3.42;;;2.28;;
85133;SDS011;75590;42.690;23.356;2024-03-23T10:26:13;2.75;;;2.53;;
85133;SDS011;75590;42.690;23.356;2024-03-23T10:28:51;3.50;;;2.60;;
85133;SDS011;75590;42.690;23.356;2024-03-23T10:31:23;7.28;;;3.45;;
85133;SDS011;75590;42.690;23.356;2024-03-23T10:33:49;2.75;;;2.28;;
85133;SDS011;75590;42.690;23.356;2024-03-23T10:36:15;3.67;;;2.55;;
85133;SDS011;75590;42.690;23.356;2024-03-23T10:38:41;3.25;;;2.20;;
85133;SDS011;75590;42.690;23.356;2024-03-23T10:41:10;2.58;;;2.38;;
85133;SDS011;75590;42.690;23.356;2024-03-23T10:43:37;3.25;;;1.80;;
85133;SDS011;75590;42.690;23.356;2024-03-23T10:46:04;3.10;;;2.80;;
85133;SDS011;75590;42.690;23.356;2024-03-23T10:48:30;4.80;;;2.90;;
85133;SDS011;75590;42.690;23.356;2024-03-23T10:50:56;2.47;;;1.90;;
85133;SDS011;75590;42.690;23.356;2024-03-23T10:53:22;3.28;;;2.10;;
85133;SDS011;75590;42.690;23.356;2024-03-23T10:55:50;3.90;;;1.85;;
85133;SDS011;75590;42.690;23.356;2024-03-23T10:58:17;2.33;;;1.95;;
85133;SDS011;75590;42.690;23.356;2024-03-23T11:00:45;3.65;;;1.40;;
85133;SDS011;75590;42.690;23.356;2024-03-23T11:05:59;2.58;;;1.58;;
85133;SDS011;75590;42.690;23.356;2024-03-23T11:08:46;2.55;;;2.17;;
85133;SDS011;75590;42.690;23.356;2024-03-23T11:11:16;5.95;;;2.45;;
85133;SDS011;75590;42.690;23.356;2024-03-23T11:13:48;2.17;;;1.95;;
85133;SDS011;75590;42.690;23.356;2024-03-23T11:18:40;3.10;;;2.38;;
85133;SDS011;75590;42.690;23.356;2024-03-23T11:21:07;1.95;;;1.83;;
85133;SDS011;75590;42.690;23.356;2024-03-23T11:23:33;2.78;;;2.00;;
85133;SDS011;75590;42.690;23.356;2024-03-23T11:25:58;2.67;;;2.20;;
85133;SDS011;75590;42.690;23.356;2024-03-23T11:28:24;2.80;;;2.15;;
85133;SDS011;75590;42.690;23.356;2024-03-23T11:30:49;3.25;;;1.50;;
85133;SDS011;75590;42.690;23.356;2024-03-23T11:33:18;2.17;;;1.65;;
85133;SDS011;75590;42.690;23.356;2024-03-23T11:35:43;1.55;;;1.25;;
85133;SDS011;75590;42.690;23.356;2024-03-23T11:38:13;3.40;;;1.80;;
85133;SDS011;75590;42.690;23.356;2024-03-23T11:40:43;2.40;;;2.00;;
85133;SDS011;75590;42.690;23.356;2024-03-23T11:43:13;1.27;;;1.13;;
85133;SDS011;75590;42.690;23.356;2024-03-23T11:45:43;4.28;;;1.48;;
85133;SDS011;75590;42.690;23.356;2024-03-23T11:48:17;3.13;;;1.30;;
85133;SDS011;75590;42.690;23.356;2024-03-23T11:50:44;1.33;;;1.25;;
85133;SDS011;75590;42.690;23.356;2024-03-23T11:55:46;1.23;;;1.13;;
85133;SDS011;75590;42.690;23.356;2024-03-23T11:58:12;2.78;;;2.33;;
85133;SDS011;75590;42.690;23.356;2024-03-23T12:00:38;1.30;;;1.30;;
85133;SDS011;75590;42.690;23.356;2024-03-23T12:03:04;2.88;;;1.35;;
85133;SDS011;75590;42.690;23.356;2024-03-23T12:05:31;1.88;;;0.88;;
85133;SDS011;75590;42.690;23.356;2024-03-23T12:10:43;1.42;;;1.33;;
85133;SDS011;75590;42.690;23.356;2024-03-23T12:13:09;1.70;;;1.52;;
85133;SDS011;75590;42.690;23.356;2024-03-23T12:15:35;3.90;;;2.03;;
85133;SDS011;75590;42.690;23.356;2024-03-23T12:18:07;5.50;;;1.40;;
85133;SDS011;75590;42.690;23.356;2024-03-23T12:20:34;0.73;;;0.70;;
85133;SDS011;75590;42.690;23.356;2024-03-23T12:23:09;1.85;;;1.40;;
85133;SDS011;75590;42.690;23.356;2024-03-23T12:25:36;1.33;;;1.33;;
85133;SDS011;75590;42.690;23.356;2024-03-23T12:28:03;2.30;;;1.98;;
85133;SDS011;75590;42.690;23.356;2024-03-23T12:30:31;1.13;;;1.13;;
85133;SDS011;75590;42.690;23.356;2024-03-23T12:33:01;0.73;;;0.73;;
85133;SDS011;75590;42.690;23.356;2024-03-23T12:35:29;3.03;;;1.60;;
85133;SDS011;75590;42.690;23.356;2024-03-23T12:37:54;1.23;;;0.82;;
85133;SDS011;75590;42.690;23.356;2024-03-23T12:40:21;1.23;;;1.02;;
85133;SDS011;75590;42.690;23.356;2024-03-23T12:42:46;0.65;;;0.63;;
85133;SDS011;75590;42.690;23.356;2024-03-23T12:45:12;0.55;;;0.55;;
85133;SDS011;75590;42.690;23.356;2024-03-23T12:47:38;1.50;;;0.77;;
85133;SDS011;75590;42.690;23.356;2024-03-23T12:50:05;0.73;;;0.73;;
85133;SDS011;75590;42.690;23.356;2024-03-23T12:52:32;1.52;;;0.77;;
85133;SDS011;75590;42.690;23.356;2024-03-23T12:55:00;0.90;;;0.90;;
85133;SDS011;75590;42.690;23.356;2024-03-23T12:57:26;0.65;;;0.65;;
85133;SDS011;75590;42.690;23.356;2024-03-23T12:59:52;0.55;;;0.50;;
85133;SDS011;75590;42.690;23.356;2024-03-23T13:02:20;0.70;;;0.55;;
85133;SDS011;75590;42.690;23.356;2024-03-23T13:04:54;2.05;;;1.95;;
85133;SDS011;75590;42.690;23.356;2024-03-23T13:07:20;0.80;;;0.80;;
85133;SDS011;75590;42.690;23.356;2024-03-23T13:09:47;1.48;;;1.42;;
85133;SDS011;75590;42.690;23.356;2024-03-23T13:12:16;1.33;;;0.93;;
85133;SDS011;75590;42.690;23.356;2024-03-23T13:14:43;0.70;;;0.70;;
85133;SDS011;75590;42.690;23.356;2024-03-23T13:17:09;1.52;;;1.30;;
85133;SDS011;75590;42.690;23.356;2024-03-23T13:19:34;0.90;;;0.90;;
85133;SDS011;75590;42.690;23.356;2024-03-23T13:22:00;1.08;;;1.02;;
85133;SDS011;75590;42.690;23.356;2024-03-23T13:24:27;0.57;;;0.50;;
85133;SDS011;75590;42.690;23.356;2024-03-23T13:26:53;2.72;;;1.63;;
85133;SDS011;75590;42.690;23.356;2024-03-23T13:29:19;2.88;;;1.00;;
85133;SDS011;75590;42.690;23.356;2024-03-23T13:31:48;2.22;;;0.57;;
85133;SDS011;75590;42.690;23.356;2024-03-23T13:34:15;2.00;;;0.65;;
85133;SDS011;75590;42.690;23.356;2024-03-23T13:36:42;0.43;;;0.43;;
85133;SDS011;75590;42.690;23.356;2024-03-23T13:41:46;0.30;;;0.30;;
85133;SDS011;75590;42.690;23.356;2024-03-23T13:44:12;0.22;;;0.22;;
85133;SDS011;75590;42.690;23.356;2024-03-23T13:46:39;0.13;;;0.13;;
85133;SDS011;75590;42.690;23.356;2024-03-23T13:49:08;0.73;;;0.55;;
85133;SDS011;75590;42.690;23.356;2024-03-23T13:51:46;0.22;;;0.22;;
85133;SDS011;75590;42.690;23.356;2024-03-23T13:56:37;0.40;;;0.40;;
85133;SDS011;75590;42.690;23.356;2024-03-23T13:59:02;0.55;;;0.55;;
85133;SDS011;75590;42.690;23.356;2024-03-23T14:01:28;0.28;;;0.28;;
85133;SDS011;75590;42.690;23.356;2024-03-23T14:03:53;0.50;;;0.50;;
85133;SDS011;75590;42.690;23.356;2024-03-23T14:06:20;0.70;;;0.70;;
85133;SDS011;75590;42.690;23.356;2024-03-23T14:08:46;0.38;;;0.38;;
85133;SDS011;75590;42.690;23.356;2024-03-23T14:11:11;0.43;;;0.30;;
85133;SDS011;75590;42.690;23.356;2024-03-23T14:13:37;0.40;;;0.40;;
85133;SDS011;75590;42.690;23.356;2024-03-23T14:16:03;0.55;;;0.35;;
85133;SDS011;75590;42.690;23.356;2024-03-23T14:18:29;0.40;;;0.32;;
85133;SDS011;75590;42.690;23.356;2024-03-23T14:20:58;0.20;;;0.20;;
85133;SDS011;75590;42.690;23.356;2024-03-23T14:23:28;0.32;;;0.32;;
85133;SDS011;75590;42.690;23.356;2024-03-23T14:25:57;0.55;;;0.55;;
85133;SDS011;75590;42.690;23.356;2024-03-23T14:28:23;0.68;;;0.68;;
85133;SDS011;75590;42.690;23.356;2024-03-23T14:30:49;2.72;;;0.77;;
85133;SDS011;75590;42.690;23.356;2024-03-23T14:33:15;0.38;;;0.38;;
85133;SDS011;75590;42.690;23.356;2024-03-23T14:35:41;0.28;;;0.28;;
85133;SDS011;75590;42.690;23.356;2024-03-23T14:38:07;0.65;;;0.32;;
85133;SDS011;75590;42.690;23.356;2024-03-23T14:40:32;0.85;;;0.65;;
85133;SDS011;75590;42.690;23.356;2024-03-23T14:42:58;0.52;;;0.52;;
85133;SDS011;75590;42.690;23.356;2024-03-23T14:45:24;0.73;;;0.73;;
85133;SDS011;75590;42.690;23.356;2024-03-23T14:47:52;0.93;;;0.70;;
85133;SDS011;75590;42.690;23.356;2024-03-23T14:50:18;0.68;;;0.50;;
85133;SDS011;75590;42.690;23.356;2024-03-23T14:52:45;0.50;;;0.50;;
85133;SDS011;75590;42.690;23.356;2024-03-23T14:55:11;0.30;;;0.30;;
85133;SDS011;75590;42.690;23.356;2024-03-23T14:57:37;0.43;;;0.43;;
85133;SDS011;75590;42.690;23.356;2024-03-23T15:00:04;2.45;;;0.93;;
85133;SDS011;75590;42.690;23.356;2024-03-23T15:02:35;1.42;;;1.33;;
85133;SDS011;75590;42.690;23.356;2024-03-23T15:05:01;0.60;;;0.60;;
85133;SDS011;75590;42.690;23.356;2024-03-23T15:09:54;0.52;;;0.52;;
85133;SDS011;75590;42.690;23.356;2024-03-23T15:12:19;0.22;;;0.20;;
85133;SDS011;75590;42.690;23.356;2024-03-23T15:14:46;0.43;;;0.40;;
85133;SDS011;75590;42.690;23.356;2024-03-23T15:17:12;1.48;;;1.05;;
85133;SDS011;75590;42.690;23.356;2024-03-23T15:19:38;0.70;;;0.70;;
85133;SDS011;75590;42.690;23.356;2024-03-23T15:22:03;1.65;;;0.60;;
85133;SDS011;75590;42.690;23.356;2024-03-23T15:24:29;0.73;;;0.45;;
85133;SDS011;75590;42.690;23.356;2024-03-23T15:26:54;0.30;;;0.30;;
85133;SDS011;75590;42.690;23.356;2024-03-23T15:29:22;0.60;;;0.60;;
85133;SDS011;75590;42.690;23.356;2024-03-23T15:31:48;0.55;;;0.52;;
85133;SDS011;75590;42.690;23.356;2024-03-23T15:34:17;0.30;;;0.30;;
85133;SDS011;75590;42.690;23.356;2024-03-23T15:36:47;0.38;;;0.38;;
85133;SDS011;75590;42.690;23.356;2024-03-23T15:41:39;0.38;;;0.32;;
85133;SDS011;75590;42.690;23.356;2024-03-23T15:44:05;1.48;;;0.30;;
85133;SDS011;75590;42.690;23.356;2024-03-23T15:46:31;0.85;;;0.43;;
85133;SDS011;75590;42.690;23.356;2024-03-23T15:48:56;0.57;;;0.55;;
85133;SDS011;75590;42.690;23.356;2024-03-23T15:51:22;0.95;;;0.75;;
85133;SDS011;75590;42.690;23.356;2024-03-23T15:53:47;1.30;;;1.20;;